createdAt,value
2018-11-23T00:00:21.093Z,25.77
2018-11-23T00:02:50.162Z,23.33
2018-11-23T00:05:18.823Z,24.93
2018-11-23T00:07:47.718Z,22.70
2018-11-23T00:10:17.827Z,26.10
2018-11-23T00:12:46.850Z,24.73
2018-11-23T00:15:17.176Z,25.50
2018-11-23T00:17:45.594Z,25.73
2018-11-23T00:20:15.235Z,24.90
2018-11-23T00:22:43.761Z,26.57
2018-11-23T00:25:14.042Z,23.90
2018-11-23T00:27:42.703Z,26.43
2018-11-23T00:30:15.350Z,23.97
2018-11-23T00:32:44.206Z,24.07
2018-11-23T00:35:14.552Z,24.20
2018-11-23T00:37:43.489Z,25.53
2018-11-23T00:40:14.109Z,26.67
2018-11-23T00:42:43.115Z,24.00
2018-11-23T00:45:13.004Z,26.67
2018-11-23T00:47:42.196Z,26.57
2018-11-23T00:50:12.551Z,24.77
2018-11-23T00:52:41.967Z,25.80
2018-11-23T00:55:13.234Z,25.00
2018-11-23T00:57:41.700Z,24.00
2018-11-23T01:00:13.327Z,23.90
2018-11-23T01:02:42.428Z,25.57
2018-11-23T01:05:12.147Z,24.00
2018-11-23T01:07:41.730Z,24.57
2018-11-23T01:10:12.206Z,24.60
2018-11-23T01:12:40.809Z,25.23
2018-11-23T01:15:09.998Z,26.60
2018-11-23T01:17:38.935Z,23.83
2018-11-23T01:20:10.808Z,24.37
2018-11-23T01:22:39.864Z,26.20
2018-11-23T01:25:09.703Z,27.43
2018-11-23T01:27:38.647Z,25.50
2018-11-23T01:30:11.233Z,24.77
2018-11-23T01:32:39.809Z,23.30
2018-11-23T01:35:08.429Z,25.17
2018-11-23T01:37:36.822Z,26.63
2018-11-23T01:40:05.816Z,24.77
2018-11-23T01:42:34.250Z,21.53
2018-11-23T01:45:02.680Z,24.60
2018-11-23T01:47:31.119Z,23.47
2018-11-23T01:49:59.554Z,22.27
2018-11-23T01:52:28.184Z,24.40
2018-11-23T01:54:56.702Z,22.60
2018-11-23T01:57:25.086Z,23.60
2018-11-23T01:59:53.568Z,23.60
2018-11-23T02:02:22.279Z,22.37
2018-11-23T02:04:50.723Z,22.87
2018-11-23T02:07:19.020Z,21.87
2018-11-23T02:09:47.509Z,21.93
2018-11-23T02:12:15.995Z,21.90
2018-11-23T02:14:47.439Z,23.30
2018-11-23T02:17:16.113Z,21.30
2018-11-23T02:19:44.630Z,23.10
2018-11-23T02:22:13.047Z,23.00
2018-11-23T02:24:41.488Z,22.43
2018-11-23T02:27:09.980Z,23.87
2018-11-23T02:29:38.558Z,20.60
2018-11-23T02:32:07.282Z,23.97
2018-11-23T02:34:35.748Z,22.00
2018-11-23T02:37:04.247Z,22.73
2018-11-23T02:39:32.690Z,25.70
2018-11-23T02:42:01.222Z,22.93
2018-11-23T02:44:29.707Z,23.17
2018-11-23T02:46:58.156Z,24.00
2018-11-23T02:49:26.529Z,21.00
2018-11-23T02:51:54.945Z,23.10
2018-11-23T02:54:23.477Z,22.63
2018-11-23T02:56:51.954Z,22.20
2018-11-23T02:59:23.965Z,22.87
2018-11-23T03:01:49.052Z,25.40
2018-11-23T03:04:17.807Z,23.10
2018-11-23T03:06:46.440Z,23.27
2018-11-23T03:09:14.903Z,21.90
2018-11-23T03:11:43.321Z,21.97
2018-11-23T03:14:11.749Z,22.47
2018-11-23T03:16:40.323Z,21.30
2018-11-23T03:19:09.089Z,22.30
2018-11-23T03:21:37.760Z,20.37
2018-11-23T03:24:06.278Z,21.60
2018-11-23T03:26:34.786Z,21.60
2018-11-23T03:29:03.226Z,21.07
2018-11-23T03:31:32.923Z,23.20
2018-11-23T03:34:01.350Z,22.77
2018-11-23T03:36:29.916Z,23.33
2018-11-23T03:38:58.361Z,24.10
2018-11-23T03:41:26.873Z,21.70
2018-11-23T03:43:58.276Z,22.33
2018-11-23T03:46:26.790Z,25.40
2018-11-23T03:48:55.705Z,21.87
2018-11-23T03:51:24.132Z,22.40
2018-11-23T03:53:52.656Z,21.50
2018-11-23T03:56:21.095Z,23.20
2018-11-23T03:58:49.505Z,24.17
2018-11-23T04:01:17.850Z,22.90
2018-11-23T04:03:46.250Z,22.97
2018-11-23T04:06:14.638Z,22.93
2018-11-23T04:08:43.140Z,22.90
2018-11-23T04:11:11.698Z,21.37
2018-11-23T04:13:40.052Z,24.50
2018-11-23T04:16:08.454Z,21.80
2018-11-23T04:18:36.923Z,23.77
2018-11-23T04:21:06.029Z,22.60
2018-11-23T04:23:34.510Z,24.87
2018-11-23T04:26:03.020Z,24.20
2018-11-23T04:28:31.440Z,24.07
2018-11-23T04:31:00.403Z,23.47
2018-11-23T04:33:29.014Z,23.13
2018-11-23T04:36:00.316Z,24.07
2018-11-23T04:38:28.706Z,22.60
2018-11-23T04:40:57.585Z,21.13
2018-11-23T04:43:26.015Z,22.93
2018-11-23T04:45:54.533Z,24.60
2018-11-23T04:48:22.964Z,25.60
2018-11-23T04:50:51.296Z,25.97
2018-11-23T04:53:19.688Z,22.07
2018-11-23T04:55:48.065Z,26.30
2018-11-23T04:58:16.523Z,23.80
2018-11-23T05:00:45.039Z,22.00
2018-11-23T05:03:13.417Z,22.47
2018-11-23T05:05:41.835Z,24.90
2018-11-23T05:08:10.406Z,24.00
2018-11-23T05:10:38.867Z,24.97
2018-11-23T05:13:07.404Z,23.90
2018-11-23T05:15:36.000Z,24.30
2018-11-23T05:18:05.391Z,27.73
2018-11-23T05:20:33.891Z,25.80
2018-11-23T05:23:02.410Z,26.77
2018-11-23T05:25:30.879Z,26.23
2018-11-23T05:27:59.242Z,27.87
2018-11-23T05:30:28.141Z,26.47
2018-11-23T05:32:56.580Z,27.10
2018-11-23T05:35:25.012Z,23.70
2018-11-23T05:37:53.481Z,23.27
2018-11-23T05:40:22.062Z,23.80
2018-11-23T05:42:50.491Z,26.23
2018-11-23T05:45:20.350Z,23.47
2018-11-23T05:47:48.999Z,22.97
2018-11-23T05:50:20.391Z,24.70
2018-11-23T05:52:48.896Z,25.23
2018-11-23T05:55:17.261Z,25.53
2018-11-23T05:57:45.712Z,24.90
2018-11-23T06:00:17.949Z,26.70
2018-11-23T06:02:46.350Z,23.87
2018-11-23T06:05:14.880Z,25.30
2018-11-23T06:07:43.648Z,26.10
2018-11-23T06:10:14.891Z,29.10
2018-11-23T06:12:43.429Z,26.13
2018-11-23T06:15:14.615Z,23.10
2018-11-23T06:17:43.441Z,27.70
2018-11-23T06:20:15.067Z,27.17
2018-11-23T06:22:44.797Z,25.47
2018-11-23T06:25:20.882Z,23.77
2018-11-23T06:27:51.054Z,23.83
2018-11-23T06:30:19.947Z,22.33
2018-11-23T06:32:57.873Z,21.40
2018-11-23T06:35:27.516Z,23.10
2018-11-23T06:37:56.665Z,22.97
2018-11-23T06:40:25.197Z,22.63
2018-11-23T06:42:53.597Z,23.90
2018-11-23T06:45:22.085Z,23.50
2018-11-23T06:47:50.820Z,23.53
2018-11-23T06:50:19.480Z,24.63
2018-11-23T06:52:47.984Z,22.97
2018-11-23T06:55:17.185Z,25.23
2018-11-23T06:57:45.621Z,25.53
2018-11-23T07:00:16.731Z,23.90
2018-11-23T07:02:45.705Z,24.80
2018-11-23T07:05:14.409Z,24.90
2018-11-23T07:07:42.815Z,26.43
2018-11-23T07:10:12.018Z,25.93
2018-11-23T07:12:41.416Z,24.97
2018-11-23T07:15:11.802Z,28.67
2018-11-23T07:17:40.729Z,30.43
2018-11-23T07:20:11.162Z,30.77
2018-11-23T07:22:40.352Z,32.27
2018-11-23T07:25:10.119Z,32.23
2018-11-23T07:27:38.747Z,32.00
2018-11-23T07:30:13.535Z,32.40
2018-11-23T07:32:42.226Z,31.80
2018-11-23T07:35:10.851Z,34.10
2018-11-23T07:37:39.312Z,29.57
2018-11-23T07:40:17.647Z,34.73
2018-11-23T07:42:46.177Z,32.47
2018-11-23T07:45:14.598Z,32.67
2018-11-23T07:47:43.312Z,31.77
2018-11-23T07:50:12.844Z,31.67
2018-11-23T07:52:41.395Z,32.33
2018-11-23T07:55:10.961Z,29.63
2018-11-23T07:57:39.467Z,23.87
2018-11-23T08:00:11.566Z,24.80
2018-11-23T08:02:40.260Z,23.20
2018-11-23T08:05:10.406Z,23.03
2018-11-23T08:07:39.036Z,20.73
2018-11-23T08:10:11.234Z,18.83
2018-11-23T08:12:40.906Z,22.10
2018-11-23T08:15:12.079Z,19.70
2018-11-23T08:17:40.841Z,20.00
2018-11-23T08:20:11.977Z,21.27
2018-11-23T08:22:40.714Z,19.10
2018-11-23T08:25:10.331Z,18.70
2018-11-23T08:27:39.496Z,20.33
2018-11-23T08:30:16.104Z,19.07
2018-11-23T08:32:45.260Z,20.03
2018-11-23T08:35:14.407Z,20.10
2018-11-23T08:37:43.968Z,22.20
2018-11-23T08:40:14.541Z,21.23
2018-11-23T08:42:43.572Z,20.57
2018-11-23T08:45:14.100Z,19.50
2018-11-23T08:47:42.607Z,18.47
2018-11-23T08:50:14.887Z,19.47
2018-11-23T08:52:43.512Z,19.60
2018-11-23T08:55:12.868Z,18.07
2018-11-23T08:57:41.904Z,17.57
2018-11-23T09:00:17.141Z,17.60
2018-11-23T09:02:46.925Z,17.33
2018-11-23T09:05:16.210Z,18.33
2018-11-23T09:07:45.899Z,18.10
2018-11-23T09:10:18.423Z,18.80
2018-11-23T09:12:50.743Z,17.00
2018-11-23T09:15:19.582Z,18.10
2018-11-23T09:17:48.575Z,19.53
2018-11-23T09:20:17.687Z,18.70
2018-11-23T09:22:46.417Z,19.13
2018-11-23T09:25:19.161Z,18.63
2018-11-23T09:27:47.573Z,19.07
2018-11-23T09:30:19.006Z,19.23
2018-11-23T09:32:53.931Z,19.17
2018-11-23T09:35:22.960Z,16.90
2018-11-23T09:37:51.804Z,18.80
2018-11-23T09:40:21.792Z,18.43
2018-11-23T09:42:50.639Z,18.40
2018-11-23T09:45:22.032Z,19.57
2018-11-23T09:47:51.896Z,18.20
2018-11-23T09:50:21.530Z,19.60
2018-11-23T09:52:51.378Z,18.90
2018-11-23T09:55:20.413Z,19.17
2018-11-23T09:57:48.947Z,17.70
2018-11-23T10:00:20.255Z,21.80
2018-11-23T10:02:49.612Z,22.30
2018-11-23T10:05:18.684Z,20.60
2018-11-23T10:07:48.617Z,20.30
2018-11-23T10:10:18.063Z,18.37
2018-11-23T10:12:46.791Z,19.37
2018-11-23T10:15:16.762Z,21.30
2018-11-23T10:17:45.237Z,18.20
2018-11-23T10:20:15.793Z,19.37
2018-11-23T10:22:44.546Z,18.43
2018-11-23T10:25:15.279Z,20.33
2018-11-23T10:27:44.282Z,19.47
2018-11-23T10:30:15.852Z,19.13
2018-11-23T10:32:45.290Z,19.70
2018-11-23T10:35:13.637Z,20.00
2018-11-23T10:37:43.033Z,22.10
2018-11-23T10:40:14.348Z,19.20
2018-11-23T10:42:43.040Z,20.13
2018-11-23T10:45:14.722Z,18.80
2018-11-23T10:47:43.213Z,19.77
2018-11-23T10:50:14.348Z,20.63
2018-11-23T10:52:42.829Z,19.03
2018-11-23T10:55:13.841Z,20.87
2018-11-23T10:57:42.323Z,19.43
2018-11-23T11:00:16.677Z,20.10
2018-11-23T11:02:49.707Z,18.00
2018-11-23T11:05:22.561Z,18.87
2018-11-23T11:07:51.064Z,20.00
2018-11-23T11:10:19.545Z,20.20
2018-11-23T11:12:48.333Z,19.63
2018-11-23T11:15:16.820Z,22.70
2018-11-23T11:17:45.310Z,19.70
2018-11-23T11:20:13.649Z,21.20
2018-11-23T11:22:42.093Z,18.73
2018-11-23T11:25:11.148Z,20.30
2018-11-23T11:27:40.277Z,20.60
2018-11-23T11:30:13.352Z,20.30
2018-11-23T11:32:42.539Z,20.87
2018-11-23T11:35:11.635Z,21.33
2018-11-23T11:37:40.170Z,21.50
2018-11-23T11:40:10.777Z,20.20
2018-11-23T11:42:39.554Z,19.90
2018-11-23T11:45:09.910Z,20.50
2018-11-23T11:47:38.418Z,20.33
2018-11-23T11:50:08.599Z,20.77
2018-11-23T11:52:38.645Z,19.63
2018-11-23T11:55:08.761Z,22.67
2018-11-23T11:57:37.236Z,20.93
2018-11-23T12:00:07.693Z,19.17
2018-11-23T12:02:36.180Z,20.10
2018-11-23T12:05:05.864Z,22.60
2018-11-23T12:07:34.309Z,20.97
2018-11-23T12:10:02.863Z,20.27
2018-11-23T12:12:31.362Z,21.97
2018-11-23T12:14:59.687Z,18.67
2018-11-23T12:17:28.133Z,21.97
2018-11-23T12:19:56.488Z,18.93
2018-11-23T12:22:24.957Z,19.30
2018-11-23T12:24:53.878Z,19.83
2018-11-23T12:27:22.284Z,21.27
2018-11-23T12:29:50.650Z,20.87
2018-11-23T12:32:19.235Z,19.90
2018-11-23T12:34:47.729Z,22.17
2018-11-23T12:37:16.120Z,20.23
2018-11-23T12:39:44.512Z,18.70
2018-11-23T12:42:12.937Z,19.03
2018-11-23T12:44:42.757Z,18.87
2018-11-23T12:47:11.238Z,19.50
2018-11-23T12:49:39.924Z,18.50
2018-11-23T12:52:08.244Z,23.20
2018-11-23T12:54:36.579Z,20.93
2018-11-23T12:57:05.747Z,22.70
2018-11-23T12:59:34.195Z,25.07
2018-11-23T13:02:05.328Z,24.90
2018-11-23T13:04:33.702Z,21.57
2018-11-23T13:07:03.467Z,20.70
2018-11-23T13:09:31.904Z,20.00
2018-11-23T13:12:00.906Z,19.67
2018-11-23T13:14:29.570Z,20.93
2018-11-23T13:16:58.927Z,20.10
2018-11-23T13:19:28.011Z,19.00
2018-11-23T13:21:57.718Z,20.67
2018-11-23T13:24:26.180Z,17.83
2018-11-23T13:26:55.076Z,17.90
2018-11-23T13:29:23.407Z,20.43
2018-11-23T13:31:52.586Z,20.27
2018-11-23T13:34:22.547Z,19.63
2018-11-23T13:36:51.119Z,19.07
2018-11-23T13:39:19.524Z,21.57
2018-11-23T13:41:47.972Z,22.47
2018-11-23T13:44:16.366Z,18.93
2018-11-23T13:46:44.805Z,19.33
2018-11-23T13:49:13.283Z,21.00
2018-11-23T13:51:41.759Z,19.67
2018-11-23T13:54:10.133Z,17.90
2018-11-23T13:56:38.537Z,18.53
2018-11-23T13:59:07.060Z,19.00
2018-11-23T14:01:35.491Z,18.47
2018-11-23T14:04:03.920Z,19.67
2018-11-23T14:06:32.497Z,19.33
2018-11-23T14:09:00.915Z,18.20
2018-11-23T14:11:29.423Z,20.67
2018-11-23T14:13:57.879Z,23.03
2018-11-23T14:16:26.261Z,19.90
2018-11-23T14:18:54.697Z,20.80
2018-11-23T14:21:23.129Z,19.37
2018-11-23T14:23:51.602Z,20.70
2018-11-23T14:26:20.015Z,19.27
2018-11-23T14:28:48.600Z,19.63
2018-11-23T14:31:17.389Z,22.00
2018-11-23T14:33:45.928Z,20.53
2018-11-23T14:36:14.389Z,20.10
2018-11-23T14:38:43.102Z,22.27
2018-11-23T14:41:11.507Z,20.23
2018-11-23T14:43:40.143Z,20.47
2018-11-23T14:46:08.625Z,20.53
2018-11-23T14:48:37.080Z,20.57
2018-11-23T14:51:05.590Z,23.10
2018-11-23T14:53:34.003Z,23.10
2018-11-23T14:56:02.412Z,21.67
2018-11-23T14:58:30.872Z,23.20
2018-11-23T15:00:59.217Z,21.20
2018-11-23T15:03:27.652Z,22.20
2018-11-23T15:05:56.064Z,22.37
2018-11-23T15:08:26.661Z,22.17
2018-11-23T15:10:56.741Z,22.00
2018-11-23T15:13:25.145Z,24.50
2018-11-23T15:15:53.742Z,22.90
2018-11-23T15:18:23.456Z,23.23
2018-11-23T15:20:52.792Z,23.87
2018-11-23T15:23:21.396Z,23.60
2018-11-23T15:25:49.853Z,24.40
2018-11-23T15:28:18.344Z,22.27
2018-11-23T15:30:47.208Z,23.67
2018-11-23T15:33:17.017Z,24.10
2018-11-23T15:35:45.940Z,23.77
2018-11-23T15:38:17.125Z,21.83
2018-11-23T15:40:45.631Z,25.47
2018-11-23T15:43:15.166Z,22.20
2018-11-23T15:45:43.605Z,23.67
2018-11-23T15:48:12.475Z,24.13
2018-11-23T15:50:42.121Z,22.50
2018-11-23T15:53:12.156Z,21.30
2018-11-23T15:55:41.192Z,21.30
2018-11-23T15:58:11.041Z,21.47
2018-11-23T16:00:42.083Z,24.47
2018-11-23T16:03:11.737Z,24.20
2018-11-23T16:05:40.628Z,23.37
2018-11-23T16:08:11.996Z,24.63
2018-11-23T16:10:40.607Z,24.77
2018-11-23T16:13:11.271Z,24.00
2018-11-23T16:15:38.648Z,22.87
2018-11-23T16:18:07.809Z,21.37
2018-11-23T16:20:42.981Z,21.77
2018-11-23T16:23:15.967Z,21.77
2018-11-23T16:25:46.217Z,23.17
2018-11-23T16:28:14.928Z,20.47
2018-11-23T16:30:45.519Z,22.50
2018-11-23T16:33:15.963Z,20.07
2018-11-23T16:35:44.530Z,20.87
2018-11-23T16:38:15.160Z,20.70
2018-11-23T16:40:45.596Z,22.60
2018-11-23T16:43:14.792Z,21.70
2018-11-23T16:45:44.054Z,24.00
2018-11-23T16:48:13.378Z,20.23
2018-11-23T16:50:43.143Z,22.87
2018-11-23T16:53:11.787Z,21.27
2018-11-23T16:55:40.279Z,21.27
2018-11-23T16:58:10.768Z,22.13
2018-11-23T17:00:41.386Z,20.77
2018-11-23T17:03:12.057Z,22.20
2018-11-23T17:05:43.978Z,22.10
2018-11-23T17:08:13.371Z,22.13
2018-11-23T17:10:42.613Z,21.87
2018-11-23T17:13:11.397Z,22.57
2018-11-23T17:15:40.143Z,23.07
2018-11-23T17:18:08.956Z,21.73
2018-11-23T17:20:38.692Z,22.70
2018-11-23T17:23:09.064Z,22.27
2018-11-23T17:25:37.569Z,23.37
2018-11-23T17:28:07.412Z,22.23
2018-11-23T17:30:37.071Z,23.47
2018-11-23T17:33:09.153Z,22.33
2018-11-23T17:35:39.008Z,23.97
2018-11-23T17:38:07.921Z,25.57
2018-11-23T17:40:38.170Z,23.40
2018-11-23T17:43:06.869Z,23.07
2018-11-23T17:45:35.506Z,23.00
2018-11-23T17:48:04.870Z,25.17
2018-11-23T17:50:35.113Z,28.30
2018-11-23T17:53:03.755Z,29.50
2018-11-23T17:55:32.236Z,30.30
2018-11-23T17:58:01.738Z,26.80
2018-11-23T18:00:38.859Z,28.07
2018-11-23T18:03:04.141Z,25.80
2018-11-23T18:05:33.835Z,23.70
2018-11-23T18:08:03.023Z,26.13
2018-11-23T18:10:33.835Z,26.60
2018-11-23T18:13:03.654Z,29.20
2018-11-23T18:15:34.189Z,34.90
2018-11-23T18:18:04.181Z,42.57
2018-11-23T18:20:33.165Z,31.50
2018-11-23T18:23:05.166Z,27.90
2018-11-23T18:25:36.399Z,26.97
2018-11-23T18:28:05.556Z,28.97
2018-11-23T18:30:35.766Z,31.83
2018-11-23T18:33:08.152Z,33.30
2018-11-23T18:35:36.926Z,34.13
2018-11-23T18:38:05.775Z,37.73
2018-11-23T18:40:37.394Z,36.93
2018-11-23T18:43:03.776Z,37.90
2018-11-23T18:45:33.001Z,36.90
2018-11-23T18:48:01.594Z,32.37
2018-11-23T18:50:30.449Z,27.70
2018-11-23T18:52:59.028Z,28.30
2018-11-23T18:55:28.672Z,27.77
2018-11-23T18:57:57.100Z,29.00
2018-11-23T19:00:25.720Z,28.50
2018-11-23T19:02:54.351Z,27.93
2018-11-23T19:05:24.558Z,28.13
2018-11-23T19:07:53.009Z,28.57
2018-11-23T19:10:22.239Z,27.67
2018-11-23T19:12:51.021Z,29.37
2018-11-23T19:15:25.090Z,32.40
2018-11-23T19:17:49.676Z,31.43
2018-11-23T19:20:19.112Z,32.90
2018-11-23T19:22:49.400Z,32.07
2018-11-23T19:25:18.067Z,34.60
2018-11-23T19:27:46.498Z,28.90
2018-11-23T19:30:27.724Z,32.23
2018-11-23T19:32:49.112Z,29.80
2018-11-23T19:35:17.588Z,27.13
2018-11-23T19:37:46.065Z,30.23
2018-11-23T19:40:15.662Z,28.70
2018-11-23T19:42:45.453Z,28.13
2018-11-23T19:45:16.082Z,29.20
2018-11-23T19:47:44.743Z,31.57
2018-11-23T19:50:17.269Z,32.57
2018-11-23T19:52:46.033Z,35.00
2018-11-23T19:55:15.414Z,35.00
2018-11-23T19:57:43.893Z,29.27
2018-11-23T20:00:20.642Z,34.60
2018-11-23T20:02:49.141Z,34.53
2018-11-23T20:05:17.645Z,34.33
2018-11-23T20:07:47.346Z,45.87
2018-11-23T20:10:16.863Z,31.97
2018-11-23T20:12:50.245Z,30.83
2018-11-23T20:15:19.329Z,28.60
2018-11-23T20:17:48.138Z,27.07
2018-11-23T20:20:17.475Z,31.97
2018-11-23T20:22:47.491Z,28.00
2018-11-23T20:25:17.305Z,27.50
2018-11-23T20:27:47.989Z,31.07
2018-11-23T20:30:18.007Z,28.30
2018-11-23T20:32:47.271Z,32.33
2018-11-23T20:35:16.869Z,31.60
2018-11-23T20:37:45.482Z,30.97
2018-11-23T20:40:15.725Z,29.80
2018-11-23T20:42:44.385Z,29.40
2018-11-23T20:45:13.594Z,25.80
2018-11-23T20:47:42.362Z,29.10
2018-11-23T20:50:13.654Z,28.67
2018-11-23T20:52:42.091Z,28.10
2018-11-23T20:55:13.779Z,28.60
2018-11-23T20:57:42.405Z,27.20
2018-11-23T21:00:13.156Z,27.83
2018-11-23T21:02:41.788Z,29.83
2018-11-23T21:05:11.862Z,28.33
2018-11-23T21:07:40.479Z,29.50
2018-11-23T21:10:20.005Z,26.77
2018-11-23T21:12:43.057Z,30.20
2018-11-23T21:15:14.931Z,28.03
2018-11-23T21:17:43.863Z,28.03
2018-11-23T21:20:12.472Z,28.17
2018-11-23T21:22:41.036Z,29.30
2018-11-23T21:25:10.516Z,29.23
2018-11-23T21:27:40.280Z,28.60
2018-11-23T21:30:12.662Z,30.20
2018-11-23T21:32:41.708Z,29.10
2018-11-23T21:35:11.470Z,27.23
2018-11-23T21:37:39.912Z,32.60
2018-11-23T21:40:12.608Z,30.57
2018-11-23T21:42:44.384Z,29.53
2018-11-23T21:45:16.789Z,31.87
2018-11-23T21:47:48.051Z,31.10
2018-11-23T21:50:24.628Z,35.40
2018-11-23T21:52:45.983Z,34.70
2018-11-23T21:55:21.119Z,37.70
2018-11-23T21:57:49.899Z,37.27
2018-11-23T22:00:18.356Z,36.63
2018-11-23T22:02:47.096Z,40.70
2018-11-23T22:05:15.659Z,42.60
2018-11-23T22:07:44.222Z,38.13
2018-11-23T22:10:15.694Z,34.50
2018-11-23T22:12:44.170Z,31.00
2018-11-23T22:15:17.177Z,30.27
2018-11-23T22:17:45.959Z,31.10
2018-11-23T22:20:16.193Z,29.77
2018-11-23T22:22:44.734Z,28.15
2018-11-23T22:25:14.318Z,27.90
2018-11-23T22:27:43.198Z,30.50
2018-11-23T22:30:15.075Z,26.27
2018-11-23T22:32:43.758Z,26.83
2018-11-23T22:35:12.731Z,24.30
2018-11-23T22:37:41.120Z,29.47
2018-11-23T22:40:11.519Z,25.60
2018-11-23T22:42:43.345Z,26.47
2018-11-23T22:45:14.690Z,26.60
2018-11-23T22:47:43.227Z,28.93
2018-11-23T22:50:17.575Z,26.60
2018-11-23T22:52:46.215Z,25.80
2018-11-23T22:55:15.310Z,27.20
2018-11-23T22:57:43.799Z,28.67
2018-11-23T23:00:20.056Z,30.93
2018-11-23T23:02:49.023Z,27.23
2018-11-23T23:05:17.823Z,26.83
2018-11-23T23:07:46.590Z,26.27
2018-11-23T23:10:15.053Z,26.30
2018-11-23T23:12:43.431Z,28.50
2018-11-23T23:15:12.300Z,27.27
2018-11-23T23:17:41.291Z,28.53
2018-11-23T23:20:12.180Z,27.03
2018-11-23T23:22:43.664Z,27.53
2018-11-23T23:25:12.818Z,30.10
2018-11-23T23:27:41.327Z,30.90
2018-11-23T23:30:11.867Z,27.63
2018-11-23T23:32:40.636Z,28.40
2018-11-23T23:35:10.202Z,27.17
2018-11-23T23:37:38.856Z,28.10
2018-11-23T23:40:09.557Z,26.23
2018-11-23T23:42:38.049Z,26.17
2018-11-23T23:45:10.008Z,26.50
2018-11-23T23:47:38.545Z,30.20
2018-11-23T23:50:09.389Z,30.83
2018-11-23T23:52:37.848Z,30.37
2018-11-23T23:55:07.494Z,30.87
2018-11-23T23:57:35.964Z,30.70
